Shafer, Minnesota
Current Conditions -  °F | °C
As of 1:35 PM on Thursday 27 Nov 2014 (Local Time) from KOEO Reporting Station
Clear Clear  
Wind Chill:   Ceiling: Unl
Heat Index:   Visibility: 10mi
Dew Point: -4°   Wind: 3mph
Humidity: 55%   Direction: 220°SW
Pressure: 30.48"   Gusts: NA
Location:  45.39°N, 92.75°W
Report Text: KOEO 271935Z AUTO 22003KT 10SM CLR M13/M20 A3048 RMK AO2 T11281201
Loading
Personal Weather Stations






























Interactive Weather Map New forecast layout! Learn more

10-Day Weather Forecast

Advertisements
Track Severe Weather on mobile